sensor_id;sensor_type;location;lat;lon;timestamp;P1;durP1;ratioP1;P2;durP2;ratioP2
57231;SDS011;43488;46.934;8.276;2023-03-20T15:39:50;717.90;;;314.23;;
57231;SDS011;43488;46.934;8.276;2023-03-20T15:49:51;772.60;;;329.38;;
57231;SDS011;43488;46.934;8.276;2023-03-20T15:52:35;736.30;;;288.08;;
57231;SDS011;43488;46.934;8.276;2023-03-20T15:55:19;796.00;;;330.63;;
57231;SDS011;43488;46.934;8.276;2023-03-20T15:57:48;778.00;;;297.48;;
57231;SDS011;43488;46.934;8.276;2023-03-20T16:00:22;766.87;;;309.43;;
57231;SDS011;43488;46.934;8.276;2023-03-20T16:03:10;779.42;;;303.52;;
57231;SDS011;43488;46.934;8.276;2023-03-20T16:05:43;784.35;;;324.20;;
57231;SDS011;43488;46.934;8.276;2023-03-20T16:08:17;794.37;;;309.87;;
57231;SDS011;43488;46.934;8.276;2023-03-20T16:10:58;770.70;;;320.80;;
57231;SDS011;43488;46.934;8.276;2023-03-20T16:16:14;767.38;;;305.15;;
57231;SDS011;43488;46.934;8.276;2023-03-20T16:18:45;760.75;;;308.13;;
57231;SDS011;43488;46.934;8.276;2023-03-20T16:21:26;760.65;;;315.20;;
57231;SDS011;43488;46.934;8.276;2023-03-20T16:24:04;752.92;;;293.58;;
57231;SDS011;43488;46.934;8.276;2023-03-20T16:26:37;776.60;;;296.38;;
57231;SDS011;43488;46.934;8.276;2023-03-20T16:29:12;805.63;;;314.00;;
57231;SDS011;43488;46.934;8.276;2023-03-20T16:31:51;779.72;;;305.40;;
57231;SDS011;43488;46.934;8.276;2023-03-20T16:34:33;802.67;;;306.52;;
57231;SDS011;43488;46.934;8.276;2023-03-20T16:37:19;810.92;;;316.30;;
57231;SDS011;43488;46.934;8.276;2023-03-20T16:43:21;789.00;;;307.30;;
57231;SDS011;43488;46.934;8.276;2023-03-20T16:45:58;804.17;;;307.95;;
57231;SDS011;43488;46.934;8.276;2023-03-20T16:51:08;798.50;;;300.40;;
57231;SDS011;43488;46.934;8.276;2023-03-20T16:53:49;779.72;;;308.52;;
57231;SDS011;43488;46.934;8.276;2023-03-20T16:56:24;788.88;;;307.45;;
57231;SDS011;43488;46.934;8.276;2023-03-20T16:59:10;782.38;;;306.98;;
57231;SDS011;43488;46.934;8.276;2023-03-20T17:01:45;790.05;;;305.25;;
57231;SDS011;43488;46.934;8.276;2023-03-20T17:04:21;762.30;;;273.95;;
57231;SDS011;43488;46.934;8.276;2023-03-20T17:06:59;750.42;;;278.85;;
57231;SDS011;43488;46.934;8.276;2023-03-20T17:12:44;780.83;;;297.77;;
57231;SDS011;43488;46.934;8.276;2023-03-20T17:15:15;764.50;;;305.63;;
57231;SDS011;43488;46.934;8.276;2023-03-20T17:17:49;780.75;;;310.52;;
57231;SDS011;43488;46.934;8.276;2023-03-20T17:20:19;770.35;;;308.90;;
57231;SDS011;43488;46.934;8.276;2023-03-20T17:22:52;777.05;;;305.35;;
57231;SDS011;43488;46.934;8.276;2023-03-20T17:25:20;772.30;;;301.55;;
57231;SDS011;43488;46.934;8.276;2023-03-20T17:27:47;786.92;;;307.63;;
57231;SDS011;43488;46.934;8.276;2023-03-20T17:30:20;793.40;;;319.83;;
57231;SDS011;43488;46.934;8.276;2023-03-20T17:32:53;779.55;;;298.23;;
57231;SDS011;43488;46.934;8.276;2023-03-20T17:35:21;785.15;;;300.17;;
57231;SDS011;43488;46.934;8.276;2023-03-20T17:37:48;774.40;;;294.27;;
57231;SDS011;43488;46.934;8.276;2023-03-20T17:40:20;750.42;;;311.10;;
57231;SDS011;43488;46.934;8.276;2023-03-20T17:42:51;762.28;;;304.67;;
57231;SDS011;43488;46.934;8.276;2023-03-20T17:45:19;768.50;;;303.13;;
57231;SDS011;43488;46.934;8.276;2023-03-20T17:47:47;755.70;;;286.75;;
57231;SDS011;43488;46.934;8.276;2023-03-20T17:50:16;766.78;;;287.05;;
57231;SDS011;43488;46.934;8.276;2023-03-20T17:52:49;755.00;;;293.38;;
57231;SDS011;43488;46.934;8.276;2023-03-20T17:55:17;741.63;;;283.73;;
57231;SDS011;43488;46.934;8.276;2023-03-20T17:57:44;739.90;;;267.27;;
57231;SDS011;43488;46.934;8.276;2023-03-20T18:00:17;764.03;;;295.40;;
57231;SDS011;43488;46.934;8.276;2023-03-20T18:02:47;770.83;;;292.25;;
57231;SDS011;43488;46.934;8.276;2023-03-20T18:05:15;776.92;;;308.48;;
57231;SDS011;43488;46.934;8.276;2023-03-20T18:07:42;773.80;;;302.95;;
57231;SDS011;43488;46.934;8.276;2023-03-20T18:10:27;765.13;;;295.48;;
57231;SDS011;43488;46.934;8.276;2023-03-20T18:12:57;762.10;;;304.17;;
57231;SDS011;43488;46.934;8.276;2023-03-20T18:15:25;782.72;;;314.65;;
57231;SDS011;43488;46.934;8.276;2023-03-20T18:17:52;778.10;;;299.80;;
57231;SDS011;43488;46.934;8.276;2023-03-20T18:20:21;774.35;;;300.85;;
57231;SDS011;43488;46.934;8.276;2023-03-20T18:22:56;776.92;;;280.23;;
57231;SDS011;43488;46.934;8.276;2023-03-20T18:25:24;807.33;;;322.38;;
57231;SDS011;43488;46.934;8.276;2023-03-20T18:27:55;793.47;;;291.05;;
57231;SDS011;43488;46.934;8.276;2023-03-20T18:30:29;752.85;;;254.48;;
57231;SDS011;43488;46.934;8.276;2023-03-20T18:33:02;815.25;;;313.50;;
57231;SDS011;43488;46.934;8.276;2023-03-20T18:35:32;806.80;;;305.60;;
57231;SDS011;43488;46.934;8.276;2023-03-20T18:38:01;769.15;;;254.55;;
57231;SDS011;43488;46.934;8.276;2023-03-20T18:40:34;787.33;;;281.35;;
57231;SDS011;43488;46.934;8.276;2023-03-20T18:43:03;780.65;;;267.48;;
57231;SDS011;43488;46.934;8.276;2023-03-20T18:45:30;784.35;;;266.98;;
57231;SDS011;43488;46.934;8.276;2023-03-20T18:47:58;804.15;;;298.35;;
57231;SDS011;43488;46.934;8.276;2023-03-20T18:50:33;813.50;;;320.27;;
57231;SDS011;43488;46.934;8.276;2023-03-20T18:53:08;790.80;;;284.88;;
57231;SDS011;43488;46.934;8.276;2023-03-20T18:55:36;778.90;;;274.88;;
57231;SDS011;43488;46.934;8.276;2023-03-20T18:58:04;786.97;;;285.42;;
57231;SDS011;43488;46.934;8.276;2023-03-20T19:00:35;805.85;;;308.02;;
57231;SDS011;43488;46.934;8.276;2023-03-20T19:03:05;802.72;;;298.10;;
57231;SDS011;43488;46.934;8.276;2023-03-20T19:05:35;804.33;;;300.27;;
57231;SDS011;43488;46.934;8.276;2023-03-20T19:08:03;783.97;;;278.10;;
57231;SDS011;43488;46.934;8.276;2023-03-20T19:10:36;694.97;;;238.20;;
57231;SDS011;43488;46.934;8.276;2023-03-20T19:13:11;640.55;;;242.40;;
57231;SDS011;43488;46.934;8.276;2023-03-20T19:15:41;535.40;;;269.45;;
57231;SDS011;43488;46.934;8.276;2023-03-20T19:18:13;454.30;;;281.95;;
57231;SDS011;43488;46.934;8.276;2023-03-20T19:20:49;726.08;;;259.45;;
57231;SDS011;43488;46.934;8.276;2023-03-20T19:23:18;691.58;;;208.70;;
57231;SDS011;43488;46.934;8.276;2023-03-20T19:25:53;738.40;;;246.60;;
57231;SDS011;43488;46.934;8.276;2023-03-20T19:30:51;739.85;;;248.05;;
57231;SDS011;43488;46.934;8.276;2023-03-20T19:33:20;696.58;;;221.43;;
57231;SDS011;43488;46.934;8.276;2023-03-20T19:35:49;706.50;;;235.80;;
57231;SDS011;43488;46.934;8.276;2023-03-20T19:38:17;692.70;;;216.93;;
57231;SDS011;43488;46.934;8.276;2023-03-20T19:40:47;715.40;;;244.00;;
57231;SDS011;43488;46.934;8.276;2023-03-20T19:43:18;706.90;;;224.98;;
57231;SDS011;43488;46.934;8.276;2023-03-20T19:45:47;716.47;;;236.40;;
57231;SDS011;43488;46.934;8.276;2023-03-20T19:48:24;704.38;;;232.50;;
57231;SDS011;43488;46.934;8.276;2023-03-20T19:50:55;707.17;;;231.70;;
57231;SDS011;43488;46.934;8.276;2023-03-20T19:53:24;641.75;;;241.35;;
57231;SDS011;43488;46.934;8.276;2023-03-20T19:55:54;709.75;;;229.27;;
57231;SDS011;43488;46.934;8.276;2023-03-20T19:58:23;522.05;;;221.40;;
57231;SDS011;43488;46.934;8.276;2023-03-20T20:00:52;519.95;;;218.50;;
57231;SDS011;43488;46.934;8.276;2023-03-20T20:03:21;482.17;;;304.23;;
57231;SDS011;43488;46.934;8.276;2023-03-20T20:05:51;474.27;;;288.52;;
57231;SDS011;43488;46.934;8.276;2023-03-20T20:08:18;532.55;;;233.43;;
57231;SDS011;43488;46.934;8.276;2023-03-20T20:10:48;491.33;;;301.58;;
57231;SDS011;43488;46.934;8.276;2023-03-20T20:13:19;498.95;;;315.05;;
57231;SDS011;43488;46.934;8.276;2023-03-20T20:15:55;517.53;;;225.52;;
57231;SDS011;43488;46.934;8.276;2023-03-20T20:18:27;516.30;;;222.00;;
57231;SDS011;43488;46.934;8.276;2023-03-20T20:20:55;494.40;;;307.00;;
57231;SDS011;43488;46.934;8.276;2023-03-20T20:23:24;518.88;;;227.60;;
57231;SDS011;43488;46.934;8.276;2023-03-20T20:25:54;519.17;;;227.75;;
57231;SDS011;43488;46.934;8.276;2023-03-20T20:28:25;534.28;;;242.68;;
57231;SDS011;43488;46.934;8.276;2023-03-20T20:30:53;508.52;;;328.85;;
57231;SDS011;43488;46.934;8.276;2023-03-20T20:33:22;486.80;;;301.27;;
57231;SDS011;43488;46.934;8.276;2023-03-20T20:35:51;487.02;;;305.90;;
57231;SDS011;43488;46.934;8.276;2023-03-20T20:38:19;504.02;;;313.67;;
57231;SDS011;43488;46.934;8.276;2023-03-20T20:40:47;499.83;;;322.73;;
57231;SDS011;43488;46.934;8.276;2023-03-20T20:43:15;485.08;;;303.95;;
57231;SDS011;43488;46.934;8.276;2023-03-20T20:45:42;485.38;;;303.02;;
57231;SDS011;43488;46.934;8.276;2023-03-20T20:48:10;494.85;;;312.55;;
57231;SDS011;43488;46.934;8.276;2023-03-20T20:50:39;504.65;;;323.52;;
57231;SDS011;43488;46.934;8.276;2023-03-20T20:53:08;524.10;;;225.88;;
57231;SDS011;43488;46.934;8.276;2023-03-20T20:55:36;527.55;;;242.02;;
57231;SDS011;43488;46.934;8.276;2023-03-20T20:58:03;487.45;;;302.70;;
57231;SDS011;43488;46.934;8.276;2023-03-20T21:00:31;523.83;;;220.45;;
57231;SDS011;43488;46.934;8.276;2023-03-20T21:02:59;511.08;;;221.75;;
57231;SDS011;43488;46.934;8.276;2023-03-20T21:05:27;514.40;;;318.58;;
57231;SDS011;43488;46.934;8.276;2023-03-20T21:07:56;473.30;;;295.45;;
57231;SDS011;43488;46.934;8.276;2023-03-20T21:10:23;525.55;;;235.57;;
57231;SDS011;43488;46.934;8.276;2023-03-20T21:12:51;503.08;;;311.95;;
57231;SDS011;43488;46.934;8.276;2023-03-20T21:15:18;490.65;;;310.67;;
57231;SDS011;43488;46.934;8.276;2023-03-20T21:17:46;494.83;;;309.08;;
57231;SDS011;43488;46.934;8.276;2023-03-20T21:20:14;484.67;;;306.52;;
57231;SDS011;43488;46.934;8.276;2023-03-20T21:22:43;521.72;;;234.13;;
57231;SDS011;43488;46.934;8.276;2023-03-20T21:25:10;510.23;;;217.00;;
57231;SDS011;43488;46.934;8.276;2023-03-20T21:27:37;539.17;;;237.30;;
57231;SDS011;43488;46.934;8.276;2023-03-20T21:30:04;537.80;;;240.65;;
57231;SDS011;43488;46.934;8.276;2023-03-20T21:32:33;494.25;;;307.10;;
57231;SDS011;43488;46.934;8.276;2023-03-20T21:35:03;494.08;;;300.73;;
57231;SDS011;43488;46.934;8.276;2023-03-20T21:37:35;514.33;;;216.80;;
57231;SDS011;43488;46.934;8.276;2023-03-20T21:40:04;522.78;;;231.38;;
57231;SDS011;43488;46.934;8.276;2023-03-20T21:42:33;496.95;;;310.73;;
57231;SDS011;43488;46.934;8.276;2023-03-20T21:45:02;487.33;;;299.35;;
57231;SDS011;43488;46.934;8.276;2023-03-20T21:47:30;504.33;;;317.80;;
57231;SDS011;43488;46.934;8.276;2023-03-20T21:49:57;535.45;;;238.73;;
57231;SDS011;43488;46.934;8.276;2023-03-20T21:52:25;536.63;;;234.35;;
57231;SDS011;43488;46.934;8.276;2023-03-20T21:54:52;526.47;;;225.93;;
57231;SDS011;43488;46.934;8.276;2023-03-20T21:57:19;508.52;;;216.88;;
57231;SDS011;43488;46.934;8.276;2023-03-20T21:59:48;512.47;;;219.75;;
57231;SDS011;43488;46.934;8.276;2023-03-20T22:02:19;495.53;;;308.63;;
57231;SDS011;43488;46.934;8.276;2023-03-20T22:04:46;524.03;;;224.52;;
57231;SDS011;43488;46.934;8.276;2023-03-20T22:07:14;517.85;;;228.60;;
57231;SDS011;43488;46.934;8.276;2023-03-20T22:09:41;519.38;;;228.60;;
57231;SDS011;43488;46.934;8.276;2023-03-20T22:12:12;510.45;;;319.52;;
57231;SDS011;43488;46.934;8.276;2023-03-20T22:14:40;543.38;;;245.82;;
57231;SDS011;43488;46.934;8.276;2023-03-20T22:17:08;485.50;;;301.30;;
57231;SDS011;43488;46.934;8.276;2023-03-20T22:19:35;490.20;;;305.83;;
57231;SDS011;43488;46.934;8.276;2023-03-20T22:22:04;531.88;;;232.93;;
57231;SDS011;43488;46.934;8.276;2023-03-20T22:24:32;522.17;;;222.45;;
57231;SDS011;43488;46.934;8.276;2023-03-20T22:26:59;489.67;;;303.55;;
57231;SDS011;43488;46.934;8.276;2023-03-20T22:29:27;490.25;;;308.75;;
57231;SDS011;43488;46.934;8.276;2023-03-20T22:31:55;490.50;;;300.65;;
57231;SDS011;43488;46.934;8.276;2023-03-20T22:34:23;500.65;;;216.57;;
57231;SDS011;43488;46.934;8.276;2023-03-20T22:36:52;512.35;;;211.77;;
57231;SDS011;43488;46.934;8.276;2023-03-20T22:39:21;501.67;;;313.73;;
57231;SDS011;43488;46.934;8.276;2023-03-20T22:41:49;503.85;;;215.77;;
57231;SDS011;43488;46.934;8.276;2023-03-20T22:44:17;524.85;;;227.07;;
57231;SDS011;43488;46.934;8.276;2023-03-20T22:46:44;476.40;;;295.02;;
57231;SDS011;43488;46.934;8.276;2023-03-20T22:49:12;529.85;;;232.93;;
57231;SDS011;43488;46.934;8.276;2023-03-20T22:51:40;510.95;;;224.52;;
57231;SDS011;43488;46.934;8.276;2023-03-20T22:54:07;488.98;;;304.70;;
57231;SDS011;43488;46.934;8.276;2023-03-20T22:56:34;470.73;;;292.80;;
57231;SDS011;43488;46.934;8.276;2023-03-20T22:59:02;558.83;;;224.02;;
57231;SDS011;43488;46.934;8.276;2023-03-20T23:01:30;517.38;;;223.07;;
57231;SDS011;43488;46.934;8.276;2023-03-20T23:03:58;498.73;;;217.07;;
57231;SDS011;43488;46.934;8.276;2023-03-20T23:06:25;503.65;;;316.90;;
57231;SDS011;43488;46.934;8.276;2023-03-20T23:08:53;477.25;;;296.77;;
57231;SDS011;43488;46.934;8.276;2023-03-20T23:11:22;490.02;;;302.65;;
57231;SDS011;43488;46.934;8.276;2023-03-20T23:13:52;484.13;;;299.88;;
57231;SDS011;43488;46.934;8.276;2023-03-20T23:16:19;479.92;;;296.40;;
57231;SDS011;43488;46.934;8.276;2023-03-20T23:18:46;496.23;;;315.60;;
57231;SDS011;43488;46.934;8.276;2023-03-20T23:21:14;508.90;;;213.48;;
57231;SDS011;43488;46.934;8.276;2023-03-20T23:23:42;511.52;;;234.30;;
57231;SDS011;43488;46.934;8.276;2023-03-20T23:26:10;495.90;;;309.73;;
57231;SDS011;43488;46.934;8.276;2023-03-20T23:28:40;464.13;;;285.83;;
57231;SDS011;43488;46.934;8.276;2023-03-20T23:31:11;494.25;;;211.52;;
57231;SDS011;43488;46.934;8.276;2023-03-20T23:33:42;467.30;;;286.40;;
57231;SDS011;43488;46.934;8.276;2023-03-20T23:36:14;507.75;;;229.70;;
57231;SDS011;43488;46.934;8.276;2023-03-20T23:38:42;483.40;;;304.08;;
57231;SDS011;43488;46.934;8.276;2023-03-20T23:41:09;483.52;;;306.85;;
57231;SDS011;43488;46.934;8.276;2023-03-20T23:43:38;739.85;;;295.48;;
57231;SDS011;43488;46.934;8.276;2023-03-20T23:46:06;747.35;;;292.92;;
57231;SDS011;43488;46.934;8.276;2023-03-20T23:48:34;756.10;;;295.92;;
57231;SDS011;43488;46.934;8.276;2023-03-20T23:51:01;758.55;;;289.35;;
57231;SDS011;43488;46.934;8.276;2023-03-20T23:53:29;773.83;;;288.77;;
57231;SDS011;43488;46.934;8.276;2023-03-20T23:55:56;771.83;;;286.13;;
57231;SDS011;43488;46.934;8.276;2023-03-20T23:58:24;764.47;;;276.15;;
